createdAt,value
2022-10-13T00:00:31.352Z,8.67
2022-10-13T00:03:02.379Z,9.67
2022-10-13T00:05:29.824Z,8.90
2022-10-13T00:07:57.330Z,11.77
2022-10-13T00:10:25.357Z,15.77
2022-10-13T00:12:52.482Z,10.47
2022-10-13T00:15:19.731Z,12.13
2022-10-13T00:17:46.402Z,20.33
2022-10-13T00:20:13.006Z,9.10
2022-10-13T00:22:39.617Z,7.63
2022-10-13T00:25:06.718Z,8.77
2022-10-13T00:27:33.312Z,8.37
2022-10-13T00:29:59.918Z,8.00
2022-10-13T00:32:26.504Z,8.17
2022-10-13T00:34:53.247Z,9.07
2022-10-13T00:37:19.826Z,9.03
2022-10-13T00:39:46.602Z,8.93
2022-10-13T00:42:13.754Z,9.83
2022-10-13T00:45:00.660Z,10.37
2022-10-13T00:47:33.069Z,11.37
2022-10-13T00:50:00.978Z,10.97
2022-10-13T00:52:28.578Z,10.83
2022-10-13T00:54:56.431Z,10.87
2022-10-13T00:57:23.529Z,11.70
2022-10-13T00:59:50.831Z,11.90
2022-10-13T01:02:17.737Z,11.03
2022-10-13T01:04:47.194Z,11.73
2022-10-13T01:07:17.528Z,11.00
2022-10-13T01:09:45.202Z,9.73
2022-10-13T01:12:37.390Z,8.73
2022-10-13T01:15:43.268Z,8.87
2022-10-13T01:18:20.647Z,9.03
2022-10-13T01:21:03.960Z,8.90
2022-10-13T01:24:01.290Z,8.63
2022-10-13T01:27:01.172Z,8.73
2022-10-13T01:29:58.554Z,8.73
2022-10-13T01:33:02.705Z,8.90
2022-10-13T01:35:41.162Z,7.23
2022-10-13T01:38:29.842Z,8.23
2022-10-13T01:41:13.687Z,8.10
2022-10-13T01:44:00.886Z,7.63
2022-10-13T01:46:34.945Z,8.30
2022-10-13T01:49:05.994Z,8.67
2022-10-13T01:51:33.918Z,9.83
2022-10-13T01:54:00.469Z,11.17
2022-10-13T01:56:27.245Z,11.27
2022-10-13T01:58:56.297Z,12.57
2022-10-13T02:01:42.202Z,13.37
2022-10-13T02:04:57.970Z,13.73
2022-10-13T02:07:33.741Z,13.50
2022-10-13T02:10:11.557Z,11.10
2022-10-13T02:12:52.750Z,11.37
2022-10-13T02:15:28.446Z,10.97
2022-10-13T02:17:56.059Z,10.90
2022-10-13T02:20:23.291Z,11.23
2022-10-13T02:22:57.478Z,9.23
2022-10-13T02:25:25.020Z,8.77
2022-10-13T02:27:52.818Z,9.60
2022-10-13T02:30:29.396Z,9.40
2022-10-13T02:32:56.105Z,9.17
2022-10-13T02:35:22.762Z,9.07
2022-10-13T02:37:49.302Z,9.53
2022-10-13T02:40:15.932Z,8.67
2022-10-13T02:42:42.578Z,8.53
2022-10-13T02:45:09.798Z,7.93
2022-10-13T02:47:36.510Z,7.90
2022-10-13T02:50:03.306Z,7.90
2022-10-13T02:52:29.854Z,8.07
2022-10-13T02:54:56.403Z,7.67
2022-10-13T02:57:23.084Z,7.97
2022-10-13T02:59:49.865Z,7.20
2022-10-13T03:02:17.348Z,7.57
2022-10-13T03:04:44.706Z,6.93
2022-10-13T03:07:11.785Z,6.93
2022-10-13T03:09:38.418Z,7.57
2022-10-13T03:12:05.188Z,7.80
2022-10-13T03:14:31.815Z,7.70
2022-10-13T03:16:58.694Z,8.83
2022-10-13T03:19:25.278Z,7.93
2022-10-13T03:21:51.818Z,9.70
2022-10-13T03:24:18.430Z,10.23
2022-10-13T03:26:44.973Z,10.17
2022-10-13T03:29:16.462Z,10.77
2022-10-13T03:31:43.488Z,10.33
2022-10-13T03:34:11.694Z,10.27
2022-10-13T03:36:38.418Z,10.40
2022-10-13T03:39:05.030Z,9.10
2022-10-13T03:41:31.595Z,17.67
2022-10-13T03:43:58.142Z,8.50
2022-10-13T03:46:28.230Z,8.43
2022-10-13T03:48:55.119Z,8.13
2022-10-13T03:51:22.949Z,7.43
2022-10-13T03:53:51.863Z,7.80
2022-10-13T03:56:21.883Z,8.60
2022-10-13T03:58:53.560Z,7.57
2022-10-13T04:01:25.012Z,7.67
2022-10-13T04:03:56.398Z,8.17
2022-10-13T04:06:24.355Z,9.97
2022-10-13T04:08:51.586Z,12.23
2022-10-13T04:11:18.861Z,14.23
2022-10-13T04:13:46.064Z,12.13
2022-10-13T04:16:24.817Z,9.43
2022-10-13T04:18:54.236Z,8.40
2022-10-13T04:21:21.813Z,8.73
2022-10-13T04:23:48.770Z,7.57
2022-10-13T04:26:21.889Z,7.67
2022-10-13T04:28:49.890Z,6.43
2022-10-13T04:31:17.098Z,6.77
2022-10-13T04:33:45.007Z,7.10
2022-10-13T04:36:13.878Z,6.93
2022-10-13T04:38:41.502Z,6.97
2022-10-13T04:41:09.885Z,6.67
2022-10-13T04:43:36.460Z,6.57
2022-10-13T04:46:03.972Z,6.83
2022-10-13T04:48:30.870Z,7.20
2022-10-13T04:51:18.446Z,6.53
2022-10-13T04:53:45.310Z,6.50
2022-10-13T04:56:14.530Z,6.00
2022-10-13T04:58:42.764Z,6.70
2022-10-13T05:01:20.340Z,6.47
2022-10-13T05:03:54.121Z,6.40
2022-10-13T05:06:29.644Z,6.27
2022-10-13T05:08:56.708Z,6.47
2022-10-13T05:11:24.230Z,6.27
2022-10-13T05:13:50.773Z,5.70
2022-10-13T05:16:19.479Z,6.63
2022-10-13T05:18:46.515Z,7.63
2022-10-13T05:21:16.123Z,7.57
2022-10-13T05:23:43.113Z,7.50
2022-10-13T05:26:12.315Z,8.13
2022-10-13T05:28:39.246Z,7.60
2022-10-13T05:31:14.621Z,7.50
2022-10-13T05:33:42.057Z,7.33
2022-10-13T05:36:14.597Z,7.20
2022-10-13T05:38:41.166Z,7.67
2022-10-13T05:41:13.669Z,7.53
2022-10-13T05:43:41.976Z,7.63
2022-10-13T05:46:10.115Z,7.10
2022-10-13T05:48:37.478Z,7.60
2022-10-13T05:51:10.909Z,8.30
2022-10-13T05:53:40.602Z,8.50
2022-10-13T05:56:12.503Z,7.20
2022-10-13T05:58:51.573Z,8.57
2022-10-13T06:01:22.135Z,7.97
2022-10-13T06:03:50.986Z,8.37
2022-10-13T06:06:17.570Z,8.20
2022-10-13T06:08:44.248Z,7.77
2022-10-13T06:11:10.901Z,9.03
2022-10-13T06:13:37.424Z,9.40
2022-10-13T06:16:04.271Z,9.03
2022-10-13T06:18:30.823Z,8.40
2022-10-13T06:20:57.760Z,9.33
2022-10-13T06:23:24.471Z,8.40
2022-10-13T06:25:52.653Z,9.23
2022-10-13T06:28:20.317Z,9.07
2022-10-13T06:30:53.465Z,8.80
2022-10-13T06:33:24.918Z,8.63
2022-10-13T06:35:52.381Z,9.57
2022-10-13T06:38:19.573Z,9.77
2022-10-13T06:40:46.122Z,9.50
2022-10-13T06:43:12.740Z,9.07
2022-10-13T06:45:39.302Z,9.57
2022-10-13T06:48:05.971Z,8.83
2022-10-13T06:50:33.146Z,8.87
2022-10-13T06:52:59.915Z,8.53
2022-10-13T06:55:26.509Z,8.60
2022-10-13T06:57:53.070Z,8.43
2022-10-13T07:00:19.757Z,8.13
2022-10-13T07:02:50.380Z,8.73
2022-10-13T07:05:17.054Z,8.93
2022-10-13T07:07:43.899Z,8.40
2022-10-13T07:10:10.486Z,8.97
2022-10-13T07:12:37.052Z,9.07
2022-10-13T07:15:03.756Z,8.90
2022-10-13T07:17:30.312Z,9.17
2022-10-13T07:19:57.973Z,10.03
2022-10-13T07:22:24.986Z,11.47
2022-10-13T07:24:51.518Z,8.50
2022-10-13T07:27:18.085Z,8.33
2022-10-13T07:29:44.635Z,9.20
2022-10-13T07:32:11.239Z,8.37
2022-10-13T07:34:37.850Z,12.50
2022-10-13T07:37:04.412Z,9.00
2022-10-13T07:39:31.049Z,10.30
2022-10-13T07:41:57.654Z,7.77
2022-10-13T07:44:24.237Z,8.33
2022-10-13T07:46:50.820Z,8.60
2022-10-13T07:49:17.429Z,8.00
2022-10-13T07:51:44.463Z,8.90
2022-10-13T07:54:11.354Z,9.87
2022-10-13T07:56:38.316Z,8.90
2022-10-13T07:59:05.255Z,8.03
2022-10-13T08:01:32.092Z,9.57
2022-10-13T08:03:59.172Z,8.63
2022-10-13T08:06:25.778Z,9.17
2022-10-13T08:08:53.294Z,8.83
2022-10-13T08:11:19.970Z,12.37
2022-10-13T08:13:51.473Z,11.37
2022-10-13T08:16:18.977Z,9.83
2022-10-13T08:18:45.942Z,9.73
2022-10-13T08:24:01.187Z,8.33
2022-10-13T08:26:28.913Z,8.77
2022-10-13T08:29:16.804Z,8.57
2022-10-13T08:31:42.946Z,7.13
2022-10-13T08:34:10.826Z,7.60
2022-10-13T08:36:38.376Z,7.03
2022-10-13T08:39:05.204Z,6.63
2022-10-13T08:41:37.113Z,6.73
2022-10-13T08:44:59.293Z,7.07
2022-10-13T08:47:16.932Z,7.00
2022-10-13T08:49:43.848Z,6.57
2022-10-13T08:52:20.790Z,6.73
2022-10-13T08:54:47.862Z,6.63
2022-10-13T08:57:14.658Z,5.80
2022-10-13T08:59:41.261Z,6.47
2022-10-13T09:02:22.234Z,6.77
2022-10-13T09:04:52.293Z,6.17
2022-10-13T09:07:23.048Z,5.87
2022-10-13T09:09:51.940Z,5.33
2022-10-13T09:12:24.257Z,6.20
2022-10-13T09:15:09.600Z,6.10
2022-10-13T09:17:38.536Z,6.13
2022-10-13T09:20:18.468Z,5.37
2022-10-13T09:22:59.784Z,5.27
2022-10-13T09:25:26.324Z,6.03
2022-10-13T09:28:08.775Z,5.63
2022-10-13T09:30:48.774Z,5.83
2022-10-13T09:33:20.549Z,5.80
2022-10-13T09:36:00.944Z,6.13
2022-10-13T09:38:28.074Z,6.57
2022-10-13T09:41:04.242Z,6.13
2022-10-13T09:43:33.848Z,6.03
2022-10-13T09:46:02.740Z,6.10
2022-10-13T09:48:34.698Z,6.57
2022-10-13T09:51:01.296Z,6.53
2022-10-13T09:53:38.150Z,6.07
2022-10-13T09:56:22.458Z,6.30
2022-10-13T09:59:03.461Z,6.13
2022-10-13T10:01:34.933Z,5.40
2022-10-13T10:04:06.539Z,5.23
2022-10-13T10:06:34.730Z,6.27
2022-10-13T10:09:34.002Z,4.93
2022-10-13T10:12:02.819Z,5.10
2022-10-13T10:14:33.916Z,5.00
2022-10-13T10:17:06.638Z,4.50
2022-10-13T10:20:03.829Z,4.83
2022-10-13T10:22:43.903Z,5.00
2022-10-13T10:25:44.665Z,4.53
2022-10-13T10:28:46.561Z,4.50
2022-10-13T10:31:39.026Z,5.00
2022-10-13T10:34:27.639Z,5.20
2022-10-13T10:37:29.513Z,4.37
2022-10-13T10:40:27.998Z,4.97
2022-10-13T10:43:13.849Z,5.53
2022-10-13T10:45:40.880Z,4.80
2022-10-13T10:48:19.094Z,5.03
2022-10-13T10:50:46.594Z,5.13
2022-10-13T10:53:37.483Z,5.20
2022-10-13T10:56:26.757Z,5.70
2022-10-13T10:59:07.769Z,6.47
2022-10-13T11:02:06.852Z,6.17
2022-10-13T11:04:50.095Z,6.40
2022-10-13T11:07:22.854Z,6.20
2022-10-13T11:09:50.358Z,6.03
2022-10-13T11:12:20.516Z,7.10
2022-10-13T11:15:05.808Z,38.67
2022-10-13T11:17:42.251Z,15.90
2022-10-13T11:20:20.713Z,7.30
2022-10-13T11:22:59.519Z,7.37
2022-10-13T11:25:41.872Z,7.37
2022-10-13T11:28:23.776Z,6.40
2022-10-13T11:30:57.672Z,6.57
2022-10-13T11:33:39.227Z,5.60
2022-10-13T11:36:35.240Z,6.60
2022-10-13T11:39:27.854Z,6.17
2022-10-13T11:42:40.681Z,6.23
2022-10-13T11:45:26.431Z,6.77
2022-10-13T11:48:05.696Z,7.40
2022-10-13T11:50:55.471Z,6.10
2022-10-13T11:53:27.628Z,6.53
2022-10-13T11:56:01.288Z,7.40
2022-10-13T11:58:33.134Z,6.40
2022-10-13T12:01:12.987Z,6.23
2022-10-13T12:03:44.931Z,6.13
2022-10-13T12:06:33.929Z,5.73
2022-10-13T12:09:14.749Z,5.30
2022-10-13T12:11:41.622Z,5.27
2022-10-13T12:14:31.628Z,5.70
2022-10-13T12:16:59.796Z,5.70
2022-10-13T12:19:29.588Z,6.10
2022-10-13T12:21:59.172Z,6.07
2022-10-13T12:24:28.802Z,6.50
2022-10-13T12:26:56.398Z,7.20
2022-10-13T12:29:26.868Z,5.87
2022-10-13T12:31:54.773Z,7.20
2022-10-13T12:34:31.949Z,5.90
2022-10-13T12:37:31.011Z,5.43
2022-10-13T12:39:58.601Z,5.10
2022-10-13T12:42:37.717Z,5.57
2022-10-13T12:45:05.262Z,4.90
2022-10-13T12:47:49.399Z,5.87
2022-10-13T12:50:24.781Z,5.07
2022-10-13T12:53:09.809Z,5.07
2022-10-13T12:55:55.557Z,4.80
2022-10-13T12:58:27.179Z,6.50
2022-10-13T13:00:59.852Z,5.30
2022-10-13T13:03:29.334Z,5.33
2022-10-13T13:06:14.742Z,5.73
2022-10-13T13:08:43.137Z,5.70
2022-10-13T13:11:23.369Z,5.57
2022-10-13T13:13:50.081Z,6.50
2022-10-13T13:16:18.275Z,5.63
2022-10-13T13:18:46.733Z,6.00
2022-10-13T13:21:16.132Z,6.03
2022-10-13T13:23:50.981Z,6.20
2022-10-13T13:26:22.465Z,6.70
2022-10-13T13:28:54.022Z,7.00
2022-10-13T13:31:22.872Z,6.80
2022-10-13T13:33:49.646Z,6.60
2022-10-13T13:36:19.625Z,7.30
2022-10-13T13:38:46.563Z,6.83
2022-10-13T13:41:13.590Z,8.33
2022-10-13T13:43:40.857Z,8.63
2022-10-13T13:46:14.127Z,9.63
2022-10-13T13:48:40.695Z,10.40
2022-10-13T13:51:09.494Z,9.47
2022-10-13T13:53:36.424Z,8.83
2022-10-13T13:56:03.886Z,8.67
2022-10-13T13:58:30.436Z,8.07
2022-10-13T14:00:58.538Z,8.17
2022-10-13T14:03:25.107Z,8.23
2022-10-13T14:05:51.733Z,8.27
2022-10-13T14:08:18.262Z,7.73
2022-10-13T14:10:44.791Z,9.57
2022-10-13T14:13:11.364Z,8.57
2022-10-13T14:15:37.913Z,8.13
2022-10-13T14:18:04.481Z,7.87
2022-10-13T14:20:31.082Z,9.07
2022-10-13T14:22:57.625Z,8.10
2022-10-13T14:25:24.490Z,8.80
2022-10-13T14:27:51.198Z,8.83
2022-10-13T14:30:17.854Z,8.97
2022-10-13T14:32:44.483Z,9.70
2022-10-13T14:35:11.232Z,9.00
2022-10-13T14:37:38.325Z,10.00
2022-10-13T14:40:05.784Z,9.80
2022-10-13T14:42:32.327Z,9.87
2022-10-13T14:44:58.901Z,10.27
2022-10-13T14:47:25.492Z,9.27
2022-10-13T14:49:52.018Z,9.60
2022-10-13T14:52:18.569Z,9.40
2022-10-13T14:54:45.346Z,4.43
2022-10-13T14:57:15.609Z,5.23
2022-10-13T14:59:42.558Z,5.20
2022-10-13T15:02:13.742Z,5.93
2022-10-13T15:04:40.309Z,6.60
2022-10-13T15:07:06.875Z,6.57
2022-10-13T15:09:45.341Z,5.93
2022-10-13T15:12:19.482Z,6.50
2022-10-13T15:14:46.287Z,7.37
2022-10-13T15:17:12.839Z,7.60
2022-10-13T15:19:39.397Z,8.20
2022-10-13T15:22:05.984Z,8.27
2022-10-13T15:24:32.551Z,8.60
2022-10-13T15:26:59.099Z,8.77
2022-10-13T15:29:25.667Z,9.53
2022-10-13T15:31:52.234Z,9.23
2022-10-13T15:34:18.772Z,9.40
2022-10-13T15:36:45.521Z,11.80
2022-10-13T15:39:12.069Z,10.17
2022-10-13T15:41:38.610Z,10.87
2022-10-13T15:44:05.155Z,10.03
2022-10-13T15:46:31.743Z,9.87
2022-10-13T15:48:59.827Z,10.00
2022-10-13T15:51:26.926Z,9.90
2022-10-13T15:53:55.017Z,9.30
2022-10-13T15:56:22.003Z,9.70
2022-10-13T15:58:48.664Z,9.33
2022-10-13T16:01:15.427Z,9.73
2022-10-13T16:03:42.147Z,9.90
2022-10-13T16:06:10.585Z,10.00
2022-10-13T16:08:39.464Z,10.10
2022-10-13T16:11:10.352Z,10.33
2022-10-13T16:13:36.942Z,10.53
2022-10-13T16:16:03.976Z,11.63
2022-10-13T16:18:32.099Z,11.53
2022-10-13T16:20:58.671Z,11.03
2022-10-13T16:23:25.840Z,11.87
2022-10-13T16:25:52.410Z,11.13
2022-10-13T16:28:19.137Z,12.50
2022-10-13T16:30:45.744Z,12.40
2022-10-13T16:33:12.329Z,12.40
2022-10-13T16:35:38.927Z,11.37
2022-10-13T16:38:05.538Z,12.57
2022-10-13T16:40:32.406Z,12.37
2022-10-13T16:42:58.966Z,11.03
2022-10-13T16:45:41.210Z,12.50
2022-10-13T16:48:12.837Z,12.03
2022-10-13T16:50:39.426Z,12.13
2022-10-13T16:53:05.982Z,12.23
2022-10-13T16:55:32.551Z,13.20
2022-10-13T16:57:59.134Z,12.10
2022-10-13T17:00:26.041Z,13.27
2022-10-13T17:02:53.004Z,12.83
2022-10-13T17:05:19.542Z,10.90
2022-10-13T17:07:46.176Z,11.90
2022-10-13T17:10:12.729Z,12.77
2022-10-13T17:12:39.323Z,12.73
2022-10-13T17:15:06.395Z,12.00
2022-10-13T17:17:32.953Z,12.90
2022-10-13T17:19:59.555Z,12.80
2022-10-13T17:22:26.194Z,13.23
2022-10-13T17:24:52.734Z,12.70
2022-10-13T17:27:19.732Z,12.70
2022-10-13T17:29:46.731Z,12.33
2022-10-13T17:32:13.367Z,10.73
2022-10-13T17:34:39.919Z,7.47
2022-10-13T17:37:06.486Z,6.53
2022-10-13T17:39:33.036Z,3.73
2022-10-13T17:41:59.611Z,4.70
2022-10-13T17:44:26.229Z,4.83
2022-10-13T17:46:52.873Z,4.13
2022-10-13T17:49:19.491Z,4.77
2022-10-13T17:51:49.349Z,4.43
2022-10-13T17:54:16.824Z,4.67
2022-10-13T17:56:45.069Z,3.87
2022-10-13T17:59:12.099Z,3.97
2022-10-13T18:01:38.805Z,3.50
2022-10-13T18:04:11.771Z,3.10
2022-10-13T18:06:40.479Z,4.07
2022-10-13T18:09:09.724Z,3.83
2022-10-13T18:11:37.030Z,3.40
2022-10-13T18:14:03.748Z,3.50
2022-10-13T18:16:30.573Z,3.33
2022-10-13T18:18:57.141Z,3.17
2022-10-13T18:21:27.435Z,3.37
2022-10-13T18:23:59.309Z,3.30
2022-10-13T18:26:26.977Z,3.87
2022-10-13T18:28:54.415Z,3.90
2022-10-13T18:31:29.435Z,3.77
2022-10-13T18:33:58.094Z,3.40
2022-10-13T18:36:28.228Z,4.20
2022-10-13T18:38:59.761Z,3.53
2022-10-13T18:41:26.338Z,3.70
2022-10-13T18:43:53.243Z,3.63
2022-10-13T18:46:19.881Z,3.27
2022-10-13T18:48:46.451Z,3.60
2022-10-13T18:51:14.872Z,3.90
2022-10-13T18:53:43.962Z,3.10
2022-10-13T18:56:17.801Z,4.00
2022-10-13T18:58:44.614Z,3.90
2022-10-13T19:01:14.235Z,3.70
2022-10-13T19:03:42.406Z,4.00
2022-10-13T19:06:11.231Z,4.20
2022-10-13T19:08:38.443Z,3.90
2022-10-13T19:11:31.945Z,3.80
2022-10-13T19:14:00.028Z,4.53
2022-10-13T19:16:29.109Z,4.20
2022-10-13T19:18:56.079Z,4.17
2022-10-13T19:21:23.626Z,3.83
2022-10-13T19:23:50.786Z,4.53
2022-10-13T19:26:20.113Z,4.73
2022-10-13T19:28:46.911Z,5.07
2022-10-13T19:31:20.222Z,5.27
2022-10-13T19:33:48.064Z,5.53
2022-10-13T19:36:30.643Z,5.00
2022-10-13T19:38:57.918Z,6.33
2022-10-13T19:41:25.278Z,5.27
2022-10-13T19:43:51.860Z,5.67
2022-10-13T19:46:18.503Z,5.27
2022-10-13T19:48:45.153Z,6.03
2022-10-13T19:51:12.729Z,5.47
2022-10-13T19:53:39.749Z,6.10
2022-10-13T19:56:06.948Z,5.70
2022-10-13T19:58:34.200Z,6.17
2022-10-13T20:01:06.753Z,6.50
2022-10-13T20:03:33.599Z,7.20
2022-10-13T20:06:04.557Z,6.27
2022-10-13T20:08:31.200Z,5.80
2022-10-13T20:10:57.852Z,5.50
2022-10-13T20:13:24.424Z,6.37
2022-10-13T20:15:50.978Z,6.10
2022-10-13T20:18:17.828Z,7.10
2022-10-13T20:20:44.584Z,6.40
2022-10-13T20:23:11.194Z,8.10
2022-10-13T20:25:38.213Z,6.93
2022-10-13T20:28:05.970Z,7.00
2022-10-13T20:30:33.309Z,8.13
2022-10-13T20:33:00.310Z,8.00
2022-10-13T20:35:26.870Z,8.70
2022-10-13T20:37:53.465Z,9.07
2022-10-13T20:40:20.046Z,9.50
2022-10-13T20:42:52.939Z,9.50
2022-10-13T20:45:19.775Z,9.30
2022-10-13T20:47:46.863Z,9.37
2022-10-13T20:50:13.701Z,10.13
2022-10-13T20:52:40.307Z,9.87
2022-10-13T20:55:07.075Z,11.20
2022-10-13T20:57:33.746Z,10.17
2022-10-13T21:00:00.307Z,11.00
2022-10-13T21:02:26.882Z,10.23
2022-10-13T21:04:53.444Z,10.70
2022-10-13T21:07:20.370Z,11.10
2022-10-13T21:09:51.458Z,10.93
2022-10-13T21:12:20.194Z,11.00
2022-10-13T21:14:46.730Z,10.70
2022-10-13T21:17:13.246Z,11.27
2022-10-13T21:19:39.775Z,11.60
2022-10-13T21:22:06.324Z,11.23
2022-10-13T21:24:32.934Z,11.17
2022-10-13T21:26:59.491Z,11.50
2022-10-13T21:29:26.085Z,12.27
2022-10-13T21:31:52.930Z,12.73
2022-10-13T21:34:19.559Z,11.93
2022-10-13T21:36:46.142Z,11.37
2022-10-13T21:39:12.798Z,11.00
2022-10-13T21:41:39.334Z,11.00
2022-10-13T21:44:05.887Z,10.63
2022-10-13T21:46:34.645Z,11.10
2022-10-13T21:49:03.515Z,10.77
2022-10-13T21:51:38.231Z,10.97
2022-10-13T21:54:07.710Z,11.53
2022-10-13T21:56:34.760Z,10.80
2022-10-13T21:59:01.524Z,10.97
2022-10-13T22:01:28.284Z,10.57
2022-10-13T22:04:00.663Z,10.53
2022-10-13T22:06:28.574Z,11.53
2022-10-13T22:08:56.991Z,11.20
2022-10-13T22:11:26.311Z,11.50
2022-10-13T22:13:52.917Z,10.23
2022-10-13T22:16:22.163Z,10.40
2022-10-13T22:18:52.100Z,10.40
2022-10-13T22:21:22.239Z,10.37
2022-10-13T22:23:49.082Z,10.67
2022-10-13T22:26:17.409Z,10.17
2022-10-13T22:28:44.387Z,10.63
2022-10-13T22:31:12.675Z,10.23
2022-10-13T22:33:40.802Z,10.73
2022-10-13T22:36:09.008Z,11.47
2022-10-13T22:38:35.954Z,9.77
2022-10-13T22:41:04.265Z,10.53
2022-10-13T22:43:30.993Z,10.67
2022-10-13T22:45:57.818Z,10.90
2022-10-13T22:48:24.397Z,11.23
2022-10-13T22:50:50.969Z,11.13
2022-10-13T22:53:17.597Z,10.73
2022-10-13T22:55:44.149Z,11.70
2022-10-13T22:58:10.783Z,11.47
2022-10-13T23:00:38.790Z,11.20
2022-10-13T23:03:06.111Z,12.10
2022-10-13T23:05:32.961Z,11.57
2022-10-13T23:07:59.562Z,11.60
2022-10-13T23:10:26.112Z,12.37
2022-10-13T23:12:52.654Z,13.40
2022-10-13T23:15:19.204Z,12.73
2022-10-13T23:17:46.008Z,13.17
2022-10-13T23:20:12.593Z,12.90
2022-10-13T23:22:39.121Z,14.60
2022-10-13T23:25:06.038Z,12.90
2022-10-13T23:27:32.594Z,12.67
2022-10-13T23:29:59.126Z,12.33
2022-10-13T23:32:25.691Z,13.53
2022-10-13T23:34:52.222Z,13.50
2022-10-13T23:37:19.060Z,12.77
2022-10-13T23:39:45.687Z,13.20
2022-10-13T23:42:12.226Z,12.67
2022-10-13T23:44:38.973Z,12.67
2022-10-13T23:47:05.537Z,11.67
2022-10-13T23:49:32.093Z,12.20
2022-10-13T23:51:58.634Z,11.47
2022-10-13T23:54:25.188Z,10.93
2022-10-13T23:56:51.713Z,12.07
2022-10-13T23:59:18.320Z,10.93
